createdAt,value
2022-08-27T00:00:47.000Z,83.43
2022-08-27T00:01:47.000Z,83.78
2022-08-27T00:02:47.000Z,83.13
2022-08-27T00:03:47.000Z,83.49
2022-08-27T00:04:47.000Z,83.31
2022-08-27T00:05:46.000Z,83.27
2022-08-27T00:06:46.000Z,83.43
2022-08-27T00:07:48.000Z,83.36
2022-08-27T00:08:47.000Z,83.20
2022-08-27T00:09:46.000Z,83.82
2022-08-27T00:10:46.000Z,84.27
2022-08-27T00:11:47.000Z,84.33
2022-08-27T00:12:47.000Z,84.45
2022-08-27T00:13:47.000Z,84.11
2022-08-27T00:14:47.000Z,84.70
2022-08-27T00:15:46.000Z,84.52
2022-08-27T00:16:47.000Z,84.64
2022-08-27T00:17:47.000Z,85.49
2022-08-27T00:18:47.000Z,85.15
2022-08-27T00:19:46.000Z,85.45
2022-08-27T00:20:47.000Z,85.51
2022-08-27T00:21:46.000Z,85.37
2022-08-27T00:22:46.000Z,85.19
2022-08-27T00:23:46.000Z,85.85
2022-08-27T00:24:47.000Z,85.45
2022-08-27T00:25:47.000Z,86.01
2022-08-27T00:26:48.000Z,85.52
2022-08-27T00:27:46.000Z,86.31
2022-08-27T00:28:47.000Z,86.29
2022-08-27T00:29:47.000Z,86.53
2022-08-27T00:30:46.000Z,86.13
2022-08-27T00:31:47.000Z,85.73
2022-08-27T00:32:47.000Z,86.22
2022-08-27T00:33:46.000Z,86.60
2022-08-27T00:34:47.000Z,86.42
2022-08-27T00:35:47.000Z,86.29
2022-08-27T00:36:47.000Z,86.65
2022-08-27T00:37:46.000Z,86.36
2022-08-27T00:38:47.000Z,87.29
2022-08-27T00:39:47.000Z,86.84
2022-08-27T00:40:48.000Z,86.70
2022-08-27T00:41:47.000Z,86.49
2022-08-27T00:42:47.000Z,86.31
2022-08-27T00:43:53.000Z,86.20
2022-08-27T00:44:47.000Z,85.88
2022-08-27T00:45:47.000Z,86.68
2022-08-27T00:46:51.000Z,86.25
2022-08-27T00:47:51.000Z,86.82
2022-08-27T00:48:50.000Z,86.96
2022-08-27T00:49:55.000Z,86.63
2022-08-27T00:50:50.000Z,86.66
2022-08-27T00:51:52.000Z,86.69
2022-08-27T00:52:53.000Z,86.49
2022-08-27T00:53:48.000Z,86.22
2022-08-27T00:54:53.000Z,87.00
2022-08-27T00:55:57.000Z,86.27
2022-08-27T00:56:48.000Z,86.01
2022-08-27T00:58:02.000Z,86.35
2022-08-27T00:58:50.000Z,86.78
2022-08-27T00:59:47.000Z,86.62
2022-08-27T01:00:48.000Z,86.41
2022-08-27T01:01:52.000Z,87.08
2022-08-27T01:02:47.000Z,86.50
2022-08-27T01:03:51.000Z,87.36
2022-08-27T01:04:56.000Z,87.26
2022-08-27T01:05:49.000Z,87.83
2022-08-27T01:06:47.000Z,87.55
2022-08-27T01:07:52.000Z,87.27
2022-08-27T01:08:56.000Z,86.96
2022-08-27T01:09:50.000Z,88.05
2022-08-27T01:10:48.000Z,87.95
2022-08-27T01:11:48.000Z,88.09
2022-08-27T01:12:49.000Z,88.46
2022-08-27T01:13:47.000Z,88.64
2022-08-27T01:14:47.000Z,87.85
2022-08-27T01:15:47.000Z,88.16
2022-08-27T01:16:52.000Z,88.35
2022-08-27T01:17:48.000Z,87.73
2022-08-27T01:18:48.000Z,88.35
2022-08-27T01:19:55.000Z,88.60
2022-08-27T01:21:09.000Z,87.95
2022-08-27T01:22:04.000Z,88.08
2022-08-27T01:22:57.000Z,88.43
2022-08-27T01:24:00.000Z,88.12
2022-08-27T01:24:50.000Z,87.81
2022-08-27T01:25:47.000Z,88.22
2022-08-27T01:26:47.000Z,87.87
2022-08-27T01:27:47.000Z,88.41
2022-08-27T01:28:47.000Z,88.71
2022-08-27T01:29:47.000Z,88.72
2022-08-27T01:30:47.000Z,88.94
2022-08-27T01:31:47.000Z,89.27
2022-08-27T01:32:48.000Z,89.03
2022-08-27T01:33:57.000Z,89.41
2022-08-27T01:34:48.000Z,89.44
2022-08-27T01:35:49.000Z,89.51
2022-08-27T01:36:47.000Z,88.99
2022-08-27T01:37:51.000Z,89.29
2022-08-27T01:38:47.000Z,89.62
2022-08-27T01:39:47.000Z,89.40
2022-08-27T01:40:47.000Z,89.62
2022-08-27T01:41:47.000Z,89.38
2022-08-27T01:42:51.000Z,89.32
2022-08-27T01:43:47.000Z,89.56
2022-08-27T01:44:54.000Z,89.66
2022-08-27T01:45:49.000Z,89.43
2022-08-27T01:46:47.000Z,89.61
2022-08-27T01:47:47.000Z,89.67
2022-08-27T01:48:47.000Z,89.65
2022-08-27T01:49:47.000Z,89.96
2022-08-27T01:50:47.000Z,89.83
2022-08-27T01:51:47.000Z,89.54
2022-08-27T01:52:49.000Z,89.39
2022-08-27T01:53:48.000Z,90.10
2022-08-27T01:54:47.000Z,89.70
2022-08-27T01:55:48.000Z,89.76
2022-08-27T01:56:47.000Z,89.74
2022-08-27T01:57:47.000Z,89.70
2022-08-27T01:58:47.000Z,89.62
2022-08-27T01:59:47.000Z,89.64
2022-08-27T02:00:51.000Z,89.82
2022-08-27T02:01:47.000Z,90.03
2022-08-27T02:02:47.000Z,89.55
2022-08-27T02:03:47.000Z,89.63
2022-08-27T02:04:47.000Z,89.78
2022-08-27T02:05:47.000Z,90.09
2022-08-27T02:06:47.000Z,89.65
2022-08-27T02:07:47.000Z,89.46
2022-08-27T02:08:47.000Z,89.76
2022-08-27T02:09:47.000Z,89.60
2022-08-27T02:10:48.000Z,89.63
2022-08-27T02:11:47.000Z,89.83
2022-08-27T02:12:48.000Z,89.95
2022-08-27T02:13:47.000Z,90.08
2022-08-27T02:14:47.000Z,89.99
2022-08-27T02:15:47.000Z,89.94
2022-08-27T02:16:47.000Z,89.91
2022-08-27T02:17:47.000Z,90.32
2022-08-27T02:18:47.000Z,90.21
2022-08-27T02:19:47.000Z,89.98
2022-08-27T02:20:47.000Z,90.21
2022-08-27T02:21:48.000Z,90.45
2022-08-27T02:22:47.000Z,90.04
2022-08-27T02:23:47.000Z,89.89
2022-08-27T02:24:47.000Z,90.11
2022-08-27T02:25:47.000Z,90.12
2022-08-27T02:26:47.000Z,90.25
2022-08-27T02:27:48.000Z,90.23
2022-08-27T02:28:47.000Z,89.72
2022-08-27T02:29:47.000Z,89.36
2022-08-27T02:30:47.000Z,89.21
2022-08-27T02:31:47.000Z,89.06
2022-08-27T02:32:48.000Z,88.98
2022-08-27T02:33:48.000Z,88.76
2022-08-27T02:34:47.000Z,89.02
2022-08-27T02:35:47.000Z,89.15
2022-08-27T02:36:47.000Z,88.94
2022-08-27T02:37:48.000Z,89.01
2022-08-27T02:38:47.000Z,88.76
2022-08-27T02:39:47.000Z,88.73
2022-08-27T02:40:47.000Z,89.11
2022-08-27T02:41:47.000Z,88.93
2022-08-27T02:42:47.000Z,88.64
2022-08-27T02:43:47.000Z,88.96
2022-08-27T02:44:47.000Z,88.51
2022-08-27T02:45:47.000Z,88.12
2022-08-27T02:46:47.000Z,88.39
2022-08-27T02:47:47.000Z,88.15
2022-08-27T02:48:47.000Z,88.89
2022-08-27T02:49:47.000Z,88.08
2022-08-27T02:50:47.000Z,87.92
2022-08-27T02:51:52.000Z,87.87
2022-08-27T02:52:48.000Z,88.64
2022-08-27T02:53:47.000Z,88.61
2022-08-27T02:54:47.000Z,88.36
2022-08-27T02:55:47.000Z,88.82
2022-08-27T02:56:46.000Z,88.54
2022-08-27T02:57:47.000Z,88.48
2022-08-27T02:58:47.000Z,88.55
2022-08-27T02:59:47.000Z,88.69
2022-08-27T03:00:46.000Z,88.85
2022-08-27T03:01:47.000Z,88.11
2022-08-27T03:02:47.000Z,88.31
2022-08-27T03:03:47.000Z,88.66
2022-08-27T03:04:47.000Z,88.20
2022-08-27T03:05:47.000Z,88.84
2022-08-27T03:06:47.000Z,88.49
2022-08-27T03:07:48.000Z,87.97
2022-08-27T03:08:47.000Z,88.14
2022-08-27T03:09:46.000Z,88.58
2022-08-27T03:10:47.000Z,88.39
2022-08-27T03:11:47.000Z,88.51
2022-08-27T03:12:47.000Z,88.74
2022-08-27T03:13:47.000Z,88.30
2022-08-27T03:14:46.000Z,88.78
2022-08-27T03:15:47.000Z,88.63
2022-08-27T03:16:47.000Z,88.39
2022-08-27T03:17:52.000Z,87.97
2022-08-27T03:18:47.000Z,88.49
2022-08-27T03:19:47.000Z,88.48
2022-08-27T03:20:52.000Z,88.53
2022-08-27T03:21:47.000Z,88.57
2022-08-27T03:22:47.000Z,88.59
2022-08-27T03:23:47.000Z,88.43
2022-08-27T03:24:46.000Z,88.13
2022-08-27T03:25:55.000Z,88.05
2022-08-27T03:26:46.000Z,87.85
2022-08-27T03:27:46.000Z,87.68
2022-08-27T03:28:46.000Z,87.55
2022-08-27T03:29:46.000Z,87.63
2022-08-27T03:30:52.000Z,87.59
2022-08-27T03:31:46.000Z,87.59
2022-08-27T03:32:47.000Z,87.59
2022-08-27T03:33:46.000Z,87.53
2022-08-27T03:34:46.000Z,87.33
2022-08-27T03:35:46.000Z,87.32
2022-08-27T03:36:47.000Z,87.30
2022-08-27T03:37:47.000Z,87.14
2022-08-27T03:38:46.000Z,87.01
2022-08-27T03:39:46.000Z,86.95
2022-08-27T03:40:47.000Z,87.43
2022-08-27T03:41:46.000Z,87.14
2022-08-27T03:42:46.000Z,87.34
2022-08-27T03:43:47.000Z,87.04
2022-08-27T03:44:46.000Z,86.86
2022-08-27T03:45:50.000Z,86.77
2022-08-27T03:46:48.000Z,86.81
2022-08-27T03:47:46.000Z,86.67
2022-08-27T03:48:47.000Z,87.05
2022-08-27T03:49:46.000Z,86.76
2022-08-27T03:50:48.000Z,86.70
2022-08-27T03:51:48.000Z,87.38
2022-08-27T03:52:46.000Z,86.93
2022-08-27T03:53:47.000Z,87.08
2022-08-27T03:54:47.000Z,87.11
2022-08-27T03:55:47.000Z,86.75
2022-08-27T03:56:47.000Z,86.72
2022-08-27T03:57:48.000Z,86.73
2022-08-27T03:58:47.000Z,86.73
2022-08-27T03:59:47.000Z,86.63
2022-08-27T04:00:47.000Z,87.05
2022-08-27T04:01:47.000Z,87.48
2022-08-27T04:02:47.000Z,86.94
2022-08-27T04:03:47.000Z,87.13
2022-08-27T04:04:47.000Z,87.10
2022-08-27T04:05:51.000Z,87.38
2022-08-27T04:06:47.000Z,87.10
2022-08-27T04:07:47.000Z,87.03
2022-08-27T04:08:47.000Z,87.12
2022-08-27T04:09:47.000Z,86.82
2022-08-27T04:10:47.000Z,87.57
2022-08-27T04:11:47.000Z,87.52
2022-08-27T04:12:47.000Z,86.98
2022-08-27T04:13:47.000Z,86.77
2022-08-27T04:14:47.000Z,87.23
2022-08-27T04:15:49.000Z,87.05
2022-08-27T04:16:47.000Z,86.94
2022-08-27T04:17:47.000Z,87.19
2022-08-27T04:18:47.000Z,86.74
2022-08-27T04:19:50.000Z,86.72
2022-08-27T04:20:49.000Z,86.94
2022-08-27T04:21:47.000Z,86.76
2022-08-27T04:22:47.000Z,86.59
2022-08-27T04:23:47.000Z,87.46
2022-08-27T04:24:47.000Z,87.02
2022-08-27T04:25:47.000Z,86.95
2022-08-27T04:26:47.000Z,86.65
2022-08-27T04:27:47.000Z,86.94
2022-08-27T04:28:47.000Z,86.57
2022-08-27T04:29:47.000Z,86.67
2022-08-27T04:30:47.000Z,86.75
2022-08-27T04:31:47.000Z,87.33
2022-08-27T04:32:47.000Z,87.43
2022-08-27T04:33:47.000Z,87.32
2022-08-27T04:34:47.000Z,87.65
2022-08-27T04:35:56.000Z,87.82
2022-08-27T04:36:47.000Z,87.33
2022-08-27T04:37:47.000Z,87.87
2022-08-27T04:38:47.000Z,87.72
2022-08-27T04:39:47.000Z,87.75
2022-08-27T04:40:52.000Z,87.32
2022-08-27T04:41:49.000Z,87.53
2022-08-27T04:42:47.000Z,87.62
2022-08-27T04:44:04.000Z,87.38
2022-08-27T04:44:48.000Z,87.65
2022-08-27T04:45:47.000Z,87.61
2022-08-27T04:46:47.000Z,87.74
2022-08-27T04:47:47.000Z,87.90
2022-08-27T04:48:47.000Z,88.21
2022-08-27T04:49:47.000Z,88.13
2022-08-27T04:50:47.000Z,88.08
2022-08-27T04:51:47.000Z,87.80
2022-08-27T04:52:47.000Z,88.09
2022-08-27T04:53:47.000Z,88.07
2022-08-27T04:54:47.000Z,88.19
2022-08-27T04:55:50.000Z,88.49
2022-08-27T04:56:47.000Z,88.49
2022-08-27T04:57:46.000Z,88.23
2022-08-27T04:58:48.000Z,88.39
2022-08-27T04:59:46.000Z,88.60
2022-08-27T05:00:52.000Z,88.55
2022-08-27T05:01:47.000Z,88.69
2022-08-27T05:02:46.000Z,88.63
2022-08-27T05:03:47.000Z,88.84
2022-08-27T05:04:46.000Z,88.85
2022-08-27T05:05:46.000Z,89.33
2022-08-27T05:06:48.000Z,89.19
2022-08-27T05:07:46.000Z,89.05
2022-08-27T05:08:48.000Z,88.83
2022-08-27T05:09:46.000Z,89.10
2022-08-27T05:10:48.000Z,88.82
2022-08-27T05:11:46.000Z,88.93
2022-08-27T05:12:47.000Z,88.86
2022-08-27T05:13:47.000Z,88.88
2022-08-27T05:14:46.000Z,88.92
2022-08-27T05:15:46.000Z,88.90
2022-08-27T05:16:46.000Z,89.00
2022-08-27T05:17:46.000Z,88.69
2022-08-27T05:18:49.000Z,88.95
2022-08-27T05:19:47.000Z,89.10
2022-08-27T05:20:48.000Z,89.08
2022-08-27T05:21:49.000Z,89.34
2022-08-27T05:22:47.000Z,89.13
2022-08-27T05:23:46.000Z,88.56
2022-08-27T05:24:46.000Z,88.64
2022-08-27T05:25:48.000Z,88.87
2022-08-27T05:26:48.000Z,88.88
2022-08-27T05:27:47.000Z,88.87
2022-08-27T05:28:47.000Z,88.29
2022-08-27T05:29:47.000Z,88.61
2022-08-27T05:30:50.000Z,88.83
2022-08-27T05:31:47.000Z,88.62
2022-08-27T05:32:47.000Z,88.71
2022-08-27T05:33:47.000Z,88.76
2022-08-27T05:34:47.000Z,88.50
2022-08-27T05:35:49.000Z,88.77
2022-08-27T05:36:47.000Z,88.35
2022-08-27T05:37:47.000Z,88.67
2022-08-27T05:38:48.000Z,88.03
2022-08-27T05:39:47.000Z,88.24
2022-08-27T05:40:47.000Z,88.14
2022-08-27T05:41:47.000Z,88.44
2022-08-27T05:42:47.000Z,88.57
2022-08-27T05:43:47.000Z,88.51
2022-08-27T05:44:47.000Z,88.31
2022-08-27T05:45:47.000Z,88.49
2022-08-27T05:46:47.000Z,88.46
2022-08-27T05:47:47.000Z,88.58
2022-08-27T05:48:48.000Z,88.71
2022-08-27T05:49:50.000Z,89.04
2022-08-27T05:50:47.000Z,89.09
2022-08-27T05:51:47.000Z,88.60
2022-08-27T05:52:47.000Z,88.44
2022-08-27T05:53:47.000Z,88.71
2022-08-27T05:54:47.000Z,88.34
2022-08-27T05:55:47.000Z,88.58
2022-08-27T05:56:48.000Z,88.33
2022-08-27T05:57:47.000Z,88.43
2022-08-27T05:58:52.000Z,88.43
2022-08-27T05:59:51.000Z,88.89
2022-08-27T06:00:51.000Z,88.71
2022-08-27T06:01:48.000Z,88.50
2022-08-27T06:02:46.000Z,88.49
2022-08-27T06:03:46.000Z,88.49
2022-08-27T06:04:47.000Z,88.76
2022-08-27T06:05:46.000Z,88.47
2022-08-27T06:06:47.000Z,88.10
2022-08-27T06:07:46.000Z,88.50
2022-08-27T06:08:48.000Z,88.13
2022-08-27T06:09:46.000Z,88.49
2022-08-27T06:10:46.000Z,88.47
2022-08-27T06:11:47.000Z,88.56
2022-08-27T06:12:46.000Z,88.02
2022-08-27T06:13:46.000Z,88.30
2022-08-27T06:14:46.000Z,88.21
2022-08-27T06:15:47.000Z,87.83
2022-08-27T06:16:46.000Z,88.25
2022-08-27T06:17:46.000Z,88.00
2022-08-27T06:18:47.000Z,88.50
2022-08-27T06:19:49.000Z,88.60
2022-08-27T06:20:46.000Z,87.07
2022-08-27T06:21:46.000Z,87.14
2022-08-27T06:22:46.000Z,87.68
2022-08-27T06:23:46.000Z,87.67
2022-08-27T06:24:46.000Z,87.64
2022-08-27T06:25:46.000Z,87.78
2022-08-27T06:26:47.000Z,87.29
2022-08-27T06:27:46.000Z,87.82
2022-08-27T06:28:47.000Z,87.68
2022-08-27T06:29:47.000Z,88.00
2022-08-27T06:30:47.000Z,87.57
2022-08-27T06:31:47.000Z,87.70
2022-08-27T06:32:47.000Z,88.26
2022-08-27T06:33:48.000Z,88.27
2022-08-27T06:34:47.000Z,88.27
2022-08-27T06:35:47.000Z,87.89
2022-08-27T06:36:47.000Z,87.95
2022-08-27T06:37:47.000Z,87.87
2022-08-27T06:38:47.000Z,87.83
2022-08-27T06:39:47.000Z,87.79
2022-08-27T06:40:47.000Z,87.71
2022-08-27T06:41:48.000Z,87.64
2022-08-27T06:42:47.000Z,87.65
2022-08-27T06:43:47.000Z,86.75
2022-08-27T06:44:47.000Z,86.72
2022-08-27T06:45:47.000Z,86.96
2022-08-27T06:46:47.000Z,86.83
2022-08-27T06:47:47.000Z,86.84
2022-08-27T06:48:53.000Z,87.07
2022-08-27T06:49:47.000Z,86.43
2022-08-27T06:50:47.000Z,86.76
2022-08-27T06:51:47.000Z,86.27
2022-08-27T06:52:47.000Z,86.91
2022-08-27T06:53:47.000Z,86.86
2022-08-27T06:54:47.000Z,86.89
2022-08-27T06:55:47.000Z,86.76
2022-08-27T06:56:48.000Z,87.01
2022-08-27T06:57:47.000Z,87.03
2022-08-27T06:58:51.000Z,86.94
2022-08-27T06:59:47.000Z,86.93
2022-08-27T07:00:47.000Z,86.92
2022-08-27T07:01:48.000Z,86.92
2022-08-27T07:02:49.000Z,86.81
2022-08-27T07:03:47.000Z,86.44
2022-08-27T07:04:47.000Z,86.61
2022-08-27T07:05:46.000Z,87.11
2022-08-27T07:06:47.000Z,86.55
2022-08-27T07:07:47.000Z,86.73
2022-08-27T07:08:46.000Z,86.53
2022-08-27T07:09:47.000Z,85.92
2022-08-27T07:10:47.000Z,86.26
2022-08-27T07:11:47.000Z,86.09
2022-08-27T07:12:47.000Z,86.23
2022-08-27T07:13:48.000Z,86.35
2022-08-27T07:14:46.000Z,86.32
2022-08-27T07:15:47.000Z,86.54
2022-08-27T07:16:47.000Z,86.42
2022-08-27T07:17:47.000Z,86.49
2022-08-27T07:18:52.000Z,86.28
2022-08-27T07:19:46.000Z,86.42
2022-08-27T07:20:47.000Z,85.79
2022-08-27T07:21:47.000Z,85.71
2022-08-27T07:22:47.000Z,85.95
2022-08-27T07:23:48.000Z,86.64
2022-08-27T07:24:47.000Z,85.31
2022-08-27T07:25:47.000Z,85.96
2022-08-27T07:26:47.000Z,86.83
2022-08-27T07:27:48.000Z,86.35
2022-08-27T07:28:48.000Z,86.97
2022-08-27T07:29:46.000Z,86.94
2022-08-27T07:30:46.000Z,86.63
2022-08-27T07:31:47.000Z,86.23
2022-08-27T07:32:48.000Z,86.65
2022-08-27T07:33:47.000Z,86.54
2022-08-27T07:34:46.000Z,86.38
2022-08-27T07:35:48.000Z,86.31
2022-08-27T07:36:47.000Z,86.31
2022-08-27T07:37:46.000Z,86.47
2022-08-27T07:38:47.000Z,86.93
2022-08-27T07:39:47.000Z,86.50
2022-08-27T07:40:47.000Z,85.93
2022-08-27T07:41:54.000Z,86.49
2022-08-27T07:42:51.000Z,85.77
2022-08-27T07:43:51.000Z,85.98
2022-08-27T07:44:47.000Z,86.07
2022-08-27T07:45:47.000Z,86.23
2022-08-27T07:46:47.000Z,85.39
2022-08-27T07:47:47.000Z,85.78
2022-08-27T07:48:48.000Z,84.82
2022-08-27T07:49:46.000Z,85.34
2022-08-27T07:50:46.000Z,85.62
2022-08-27T07:51:47.000Z,85.44
2022-08-27T07:52:46.000Z,85.66
2022-08-27T07:53:47.000Z,85.62
2022-08-27T07:54:46.000Z,85.85
2022-08-27T07:55:46.000Z,85.61
2022-08-27T07:56:46.000Z,85.77
2022-08-27T07:57:47.000Z,86.17
2022-08-27T07:58:46.000Z,85.56
2022-08-27T07:59:47.000Z,85.84
2022-08-27T08:00:46.000Z,85.86
2022-08-27T08:01:47.000Z,84.98
2022-08-27T08:02:48.000Z,84.75
2022-08-27T08:03:47.000Z,85.25
2022-08-27T08:04:47.000Z,85.57
2022-08-27T08:05:48.000Z,84.71
2022-08-27T08:06:48.000Z,85.32
2022-08-27T08:07:46.000Z,85.22
2022-08-27T08:08:47.000Z,85.83
2022-08-27T08:09:47.000Z,85.08
2022-08-27T08:10:47.000Z,84.92
2022-08-27T08:11:47.000Z,85.19
2022-08-27T08:12:48.000Z,84.70
2022-08-27T08:13:47.000Z,84.48
2022-08-27T08:14:47.000Z,84.61
2022-08-27T08:15:47.000Z,84.52
2022-08-27T08:16:47.000Z,84.58
2022-08-27T08:17:47.000Z,84.30
2022-08-27T08:18:46.000Z,83.53
2022-08-27T08:19:48.000Z,83.67
2022-08-27T08:20:47.000Z,83.30
2022-08-27T08:21:47.000Z,83.41
2022-08-27T08:22:47.000Z,83.69
2022-08-27T08:23:48.000Z,82.65
2022-08-27T08:24:47.000Z,83.07
2022-08-27T08:25:47.000Z,81.59
2022-08-27T08:26:47.000Z,81.60
2022-08-27T08:27:47.000Z,82.29
2022-08-27T08:28:47.000Z,82.38
2022-08-27T08:29:47.000Z,82.30
2022-08-27T08:30:46.000Z,81.58
2022-08-27T08:31:46.000Z,81.86
2022-08-27T08:32:47.000Z,81.48
2022-08-27T08:33:47.000Z,81.07
2022-08-27T08:34:47.000Z,80.72
2022-08-27T08:35:48.000Z,81.83
2022-08-27T08:36:47.000Z,80.96
2022-08-27T08:37:46.000Z,80.64
2022-08-27T08:38:48.000Z,80.72
2022-08-27T08:39:47.000Z,80.53
2022-08-27T08:40:50.000Z,80.00
2022-08-27T08:41:50.000Z,79.75
2022-08-27T08:42:52.000Z,80.58
2022-08-27T08:43:50.000Z,80.90
2022-08-27T08:44:51.000Z,79.80
2022-08-27T08:45:49.000Z,80.54
2022-08-27T08:46:55.000Z,78.05
2022-08-27T08:48:05.000Z,80.05
2022-08-27T08:48:52.000Z,79.51
2022-08-27T08:50:04.000Z,79.43
2022-08-27T08:51:05.000Z,78.85
2022-08-27T08:51:47.000Z,78.83
2022-08-27T08:52:57.000Z,78.11
2022-08-27T08:53:55.000Z,78.10
2022-08-27T08:54:48.000Z,77.46
2022-08-27T08:55:52.000Z,77.71
2022-08-27T08:56:55.000Z,78.43
2022-08-27T08:57:57.000Z,78.16
2022-08-27T08:58:56.000Z,77.94
2022-08-27T08:59:58.000Z,77.34
2022-08-27T09:00:55.000Z,77.46
2022-08-27T09:01:49.000Z,77.01
2022-08-27T09:02:50.000Z,77.54
2022-08-27T09:03:54.000Z,77.83
2022-08-27T09:04:46.000Z,77.67
2022-08-27T09:06:01.000Z,77.24
2022-08-27T09:06:58.000Z,77.00
2022-08-27T09:08:07.000Z,77.21
2022-08-27T09:08:47.000Z,77.75
2022-08-27T09:09:58.000Z,77.32
2022-08-27T09:10:55.000Z,76.99
2022-08-27T09:11:56.000Z,77.54
2022-08-27T09:12:46.000Z,77.35
2022-08-27T09:13:51.000Z,76.73
2022-08-27T09:14:57.000Z,77.15
2022-08-27T09:15:47.000Z,77.07
2022-08-27T09:16:46.000Z,77.09
2022-08-27T09:17:47.000Z,77.00
2022-08-27T09:18:48.000Z,76.64
2022-08-27T09:19:46.000Z,76.32
2022-08-27T09:20:52.000Z,76.80
2022-08-27T09:21:58.000Z,75.88
2022-08-27T09:23:07.000Z,76.30
2022-08-27T09:23:57.000Z,76.77
2022-08-27T09:25:06.000Z,77.05
2022-08-27T09:25:46.000Z,76.10
2022-08-27T09:26:46.000Z,75.72
2022-08-27T09:27:49.000Z,75.52
2022-08-27T09:29:06.000Z,75.82
2022-08-27T09:29:53.000Z,76.38
2022-08-27T09:30:46.000Z,76.34
2022-08-27T09:31:53.000Z,75.88
2022-08-27T09:32:52.000Z,76.26
2022-08-27T09:33:46.000Z,76.30
2022-08-27T09:34:46.000Z,76.41
2022-08-27T09:35:48.000Z,76.11
2022-08-27T09:36:56.000Z,75.75
2022-08-27T09:37:50.000Z,76.09
2022-08-27T09:38:55.000Z,76.22
2022-08-27T09:39:56.000Z,75.58
2022-08-27T09:40:48.000Z,75.95
2022-08-27T09:41:47.000Z,74.88
2022-08-27T09:42:53.000Z,75.69
2022-08-27T09:43:56.000Z,75.10
2022-08-27T09:44:46.000Z,75.26
2022-08-27T09:45:53.000Z,75.26
2022-08-27T09:47:10.000Z,75.11
2022-08-27T09:47:56.000Z,74.71
2022-08-27T09:48:46.000Z,75.31
2022-08-27T09:49:46.000Z,74.54
2022-08-27T09:50:51.000Z,74.69
2022-08-27T09:51:46.000Z,75.10
2022-08-27T09:52:57.000Z,73.83
2022-08-27T09:53:53.000Z,74.13
2022-08-27T09:54:46.000Z,74.23
2022-08-27T09:55:52.000Z,74.82
2022-08-27T09:56:49.000Z,74.52
2022-08-27T09:57:46.000Z,74.48
2022-08-27T09:58:50.000Z,74.93
2022-08-27T09:59:51.000Z,74.63
2022-08-27T10:00:47.000Z,74.07
2022-08-27T10:01:54.000Z,74.34
2022-08-27T10:02:50.000Z,73.66
2022-08-27T10:03:47.000Z,73.85
2022-08-27T10:04:53.000Z,74.19
2022-08-27T10:05:49.000Z,73.99
2022-08-27T10:06:48.000Z,73.44
2022-08-27T10:07:59.000Z,73.45
2022-08-27T10:08:50.000Z,74.66
2022-08-27T10:10:07.000Z,74.39
2022-08-27T10:10:56.000Z,74.09
2022-08-27T10:12:04.000Z,74.51
2022-08-27T10:12:57.000Z,74.27
2022-08-27T10:13:56.000Z,74.54
2022-08-27T10:14:52.000Z,74.11
2022-08-27T10:16:05.000Z,74.90
2022-08-27T10:16:56.000Z,74.51
2022-08-27T10:17:58.000Z,74.54
2022-08-27T10:18:56.000Z,74.27
2022-08-27T10:19:56.000Z,74.69
2022-08-27T10:20:56.000Z,75.28
2022-08-27T10:21:58.000Z,75.09
2022-08-27T10:22:57.000Z,75.01
2022-08-27T10:24:09.000Z,74.07
2022-08-27T10:24:56.000Z,74.58
2022-08-27T10:26:01.000Z,74.62
2022-08-27T10:27:08.000Z,74.54
2022-08-27T10:27:56.000Z,74.87
2022-08-27T10:28:55.000Z,74.45
2022-08-27T10:30:00.000Z,75.00
2022-08-27T10:31:00.000Z,74.74
2022-08-27T10:32:02.000Z,75.02
2022-08-27T10:33:09.000Z,74.58
2022-08-27T10:33:58.000Z,74.95
2022-08-27T10:35:17.000Z,74.94
2022-08-27T10:36:00.000Z,74.53
2022-08-27T10:36:59.000Z,74.24
2022-08-27T10:37:56.000Z,74.91
2022-08-27T10:38:56.000Z,74.73
2022-08-27T10:39:56.000Z,74.35
2022-08-27T10:40:59.000Z,74.83
2022-08-27T10:42:04.000Z,74.54
2022-08-27T10:43:10.000Z,75.31
2022-08-27T10:44:01.000Z,74.46
2022-08-27T10:45:09.000Z,74.54
2022-08-27T10:45:56.000Z,74.09
2022-08-27T10:47:06.000Z,74.84
2022-08-27T10:47:56.000Z,74.14
2022-08-27T10:49:10.000Z,74.36
2022-08-27T10:49:56.000Z,74.49
2022-08-27T10:50:53.000Z,73.99
2022-08-27T10:52:07.000Z,74.05
2022-08-27T10:52:53.000Z,73.80
2022-08-27T10:53:56.000Z,74.07
2022-08-27T10:54:59.000Z,73.91
2022-08-27T10:55:58.000Z,73.30
2022-08-27T10:56:58.000Z,74.07
2022-08-27T10:57:56.000Z,74.18
2022-08-27T10:59:15.000Z,73.83
2022-08-27T11:00:07.000Z,73.64
2022-08-27T11:01:09.000Z,73.64
2022-08-27T11:02:00.000Z,72.58
2022-08-27T11:02:59.000Z,73.09
2022-08-27T11:03:53.000Z,73.43
2022-08-27T11:04:55.000Z,73.15
2022-08-27T11:05:48.000Z,72.35
2022-08-27T11:07:09.000Z,73.25
2022-08-27T11:07:58.000Z,73.26
2022-08-27T11:09:04.000Z,73.12
2022-08-27T11:09:58.000Z,73.65
2022-08-27T11:11:03.000Z,72.94
2022-08-27T11:11:03.000Z,72.94
2022-08-27T11:12:20.000Z,72.58
2022-08-27T11:12:50.000Z,73.40
2022-08-27T11:13:51.000Z,73.79
2022-08-27T11:14:52.000Z,73.59
2022-08-27T11:15:51.000Z,73.36
2022-08-27T11:16:52.000Z,73.26
2022-08-27T11:18:06.000Z,72.92
2022-08-27T11:18:56.000Z,73.39
2022-08-27T11:19:54.000Z,72.67
2022-08-27T11:20:54.000Z,72.49
2022-08-27T11:22:01.000Z,72.72
2022-08-27T11:22:52.000Z,72.85
2022-08-27T11:23:54.000Z,72.49
2022-08-27T11:24:55.000Z,72.45
2022-08-27T11:25:55.000Z,72.71
2022-08-27T11:26:52.000Z,72.43
2022-08-27T11:27:50.000Z,72.43
2022-08-27T11:28:55.000Z,72.48
2022-08-27T11:29:58.000Z,72.21
2022-08-27T11:31:06.000Z,72.09
2022-08-27T11:32:07.000Z,72.25
2022-08-27T11:32:57.000Z,72.54
2022-08-27T11:33:56.000Z,72.72
2022-08-27T11:34:53.000Z,72.18
2022-08-27T11:36:09.000Z,72.37
2022-08-27T11:36:58.000Z,72.63
2022-08-27T11:38:13.000Z,72.45
2022-08-27T11:39:03.000Z,72.62
2022-08-27T11:40:09.000Z,71.58
2022-08-27T11:41:10.000Z,71.33
2022-08-27T11:42:11.000Z,71.80
2022-08-27T11:42:54.000Z,71.51
2022-08-27T11:43:46.000Z,71.95
2022-08-27T11:44:51.000Z,71.80
2022-08-27T11:45:53.000Z,71.81
2022-08-27T11:46:54.000Z,71.62
2022-08-27T11:47:52.000Z,71.38
2022-08-27T11:48:56.000Z,71.53
2022-08-27T11:49:53.000Z,71.31
2022-08-27T11:50:52.000Z,71.53
2022-08-27T11:51:55.000Z,71.48
2022-08-27T11:52:53.000Z,71.94
2022-08-27T11:53:56.000Z,71.90
2022-08-27T11:54:49.000Z,71.81
2022-08-27T11:55:46.000Z,71.75
2022-08-27T11:56:46.000Z,72.07
2022-08-27T11:57:59.000Z,71.70
2022-08-27T11:58:47.000Z,71.78
2022-08-27T11:59:46.000Z,70.98
2022-08-27T12:00:47.000Z,70.97
2022-08-27T12:01:48.000Z,71.70
2022-08-27T12:02:55.000Z,71.66
2022-08-27T12:03:59.000Z,71.94
2022-08-27T12:04:46.000Z,72.21
2022-08-27T12:06:06.000Z,71.78
2022-08-27T12:06:56.000Z,71.99
2022-08-27T12:07:49.000Z,71.88
2022-08-27T12:08:46.000Z,71.85
2022-08-27T12:09:59.000Z,71.70
2022-08-27T12:10:56.000Z,71.58
2022-08-27T12:11:57.000Z,70.95
2022-08-27T12:12:58.000Z,70.41
2022-08-27T12:14:06.000Z,70.63
2022-08-27T12:15:04.000Z,70.82
2022-08-27T12:16:00.000Z,71.08
2022-08-27T12:16:56.000Z,71.22
2022-08-27T12:17:58.000Z,71.73
2022-08-27T12:19:01.000Z,71.04
2022-08-27T12:20:06.000Z,71.38
2022-08-27T12:21:06.000Z,71.01
2022-08-27T12:22:06.000Z,70.42
2022-08-27T12:23:01.000Z,70.63
2022-08-27T12:23:58.000Z,70.33
2022-08-27T12:24:54.000Z,70.50
2022-08-27T12:25:56.000Z,70.62
2022-08-27T12:26:56.000Z,70.60
2022-08-27T12:27:57.000Z,70.01
2022-08-27T12:28:46.000Z,70.53
2022-08-27T12:29:53.000Z,70.69
2022-08-27T12:30:49.000Z,70.15
2022-08-27T12:31:47.000Z,69.87
2022-08-27T12:32:48.000Z,70.12
2022-08-27T12:33:49.000Z,70.07
2022-08-27T12:34:53.000Z,70.39
2022-08-27T12:35:49.000Z,69.68
2022-08-27T12:36:48.000Z,69.48
2022-08-27T12:37:53.000Z,70.03
2022-08-27T12:38:50.000Z,69.59
2022-08-27T12:39:51.000Z,69.49
2022-08-27T12:40:52.000Z,69.42
2022-08-27T12:41:48.000Z,69.09
2022-08-27T12:42:46.000Z,69.38
2022-08-27T12:43:46.000Z,69.03
2022-08-27T12:44:53.000Z,69.28
2022-08-27T12:46:03.000Z,69.14
2022-08-27T12:46:49.000Z,69.01
2022-08-27T12:47:47.000Z,68.31
2022-08-27T12:48:53.000Z,68.40
2022-08-27T12:49:53.000Z,67.71
2022-08-27T12:50:52.000Z,69.04
2022-08-27T12:51:47.000Z,68.27